Česky Dansk Deutsch English Español Suomi Français Magyar Italiano Nederlands norsk Polski Português svenska Türkçe

 

Het Weer

Tbilisi (Georgië)

05:00, 8 maart 2008 (GMT)

NWNNE
WE
SWSSE
Home            
Tbilisi Muhrani Gyanca Airport Yerevan Kars Nalchik Mineral'Nye Vody Khoy Erzurum Van Tabriz Mus Tur-Afb Trabzon Baku / Bine Airport Adler Orumieh Stavropol / Shpakovskoye Ardabil Maragheh / Sahand Erzincan Elista Batman Aktau

Om een weerknop op uw website of weblog te plaatsen, copieer onderstaande code en plak die in uw pagina. In het eerste vakje staat HTML-code, in het tweede vakje UBB-code.


Add to Google

Details

Wind speed:1 bf, 3 kn, 1.5 m/s, 3.5 miles/h, 5.6 km/h
Wind direction:W, 260°
Visibility:Greater than 10000 m, 10 km, 32800 ft, 6.2 miles
Clouds:Ein wenig bewölkt at 10000 ft, 3048 m
Temperature:5°C, 41°F
Dew-point:1°C, 34°F
Atmospheric pressure:1027 hPa, 770.3 mmHg, 30.33 inHg, 1.014 atm
Relative humidity:75.3 %
METAR:UGGG 080500Z 26003KT 9999 FEW100 05/01 Q1027 NOSIG RMK 31CLRD80

Snelkoppelingen

Actuele weersinformatie van de hele wereld. Voeg locaties toe met het plus (+) symbool. Deze snelkoppelingen kunnen worden toegevoegd aan Google.

Lid van de Technetium groep

website free tracking
StatCounter NetStat W3C Validator

03-10-2022 12:24:48
astro.technetium.be money.technetium.be phote.technetium.be tafeltennistafel.technetium.be www.ligfiets.net